Time;durP1;ratioP1;P1;durP2;ratioP2;P2;SDS_P1;SDS_P2;PMS_P1;PMS_P2;Temp;Humidity;BMP_temperature;BMP_pressure;BME280_temperature;BME280_humidity;BME280_pressure;Samples;Min_cycle;Max_cycle;Signal;HPM_P1;HPM_P2
2024/03/14 00:01:09;;;;;;;29.50;26.60;;;11.10;99.90;;;;;;5103192;28;20533;-81
2024/03/14 00:03:38;;;;;;;29.47;26.43;;;11.10;99.90;;;;;;5119859;28;20464;-80
2024/03/14 00:06:06;;;;;;;28.17;25.30;;;11.10;99.90;;;;;;5103370;28;21012;-79
2024/03/14 00:08:35;;;;;;;26.20;23.60;;;11.10;99.90;;;;;;5102901;28;20473;-80
2024/03/14 00:11:05;;;;;;;26.27;23.57;;;11.10;99.90;;;;;;5102355;28;20470;-79
2024/03/14 00:13:34;;;;;;;26.60;24.00;;;11.10;99.90;;;;;;5103368;28;20427;-81
2024/03/14 00:16:03;;;;;;;24.90;22.40;;;11.10;99.90;;;;;;5103091;28;20541;-79
2024/03/14 00:18:32;;;;;;;24.83;22.63;;;11.10;99.90;;;;;;5102964;28;20461;-79
2024/03/14 00:21:09;;;;;;;25.60;23.20;;;11.10;99.90;;;;;;5102831;28;20837;-79
2024/03/14 00:23:38;;;;;;;23.30;21.07;;;11.10;99.90;;;;;;5104566;28;20468;-80
2024/03/14 00:26:08;;;;;;;24.20;21.70;;;11.10;99.90;;;;;;5102541;28;20886;-80
2024/03/14 00:28:39;;;;;;;24.70;22.30;;;11.10;99.90;;;;;;5103144;28;20449;-80
2024/03/14 00:31:07;;;;;;;23.37;21.17;;;11.10;99.90;;;;;;5103962;28;20986;-81
2024/03/14 00:33:35;;;;;;;23.80;21.50;;;11.10;99.90;;;;;;5104210;28;20446;-81
2024/03/14 00:36:04;;;;;;;23.57;21.10;;;11.10;99.90;;;;;;5121242;28;20885;-81
2024/03/14 00:38:33;;;;;;;23.90;21.67;;;11.10;99.90;;;;;;5104164;28;20447;-79
2024/03/14 00:41:03;;;;;;;24.00;21.63;;;11.10;99.90;;;;;;5104160;28;20474;-80
2024/03/14 00:43:33;;;;;;;22.13;20.00;;;11.10;99.90;;;;;;5104121;28;20466;-80
2024/03/14 00:46:01;;;;;;;23.90;21.80;;;11.10;99.90;;;;;;5107518;27;20490;-80
2024/03/14 00:48:32;;;;;;;22.40;20.30;;;11.10;99.90;;;;;;5106958;27;20457;-79
2024/03/14 00:51:01;;;;;;;21.50;19.30;;;11.10;99.90;;;;;;5107174;27;20816;-80
2024/03/14 00:53:30;;;;;;;22.60;20.50;;;11.10;99.90;;;;;;5123740;27;20434;-79
2024/03/14 00:55:58;;;;;;;21.63;19.53;;;11.10;99.90;;;;;;5106356;27;21051;-80
2024/03/14 00:58:27;;;;;;;23.00;20.77;;;11.10;99.90;;;;;;5106505;27;20947;-81
2024/03/14 01:00:56;;;;;;;21.30;19.30;;;11.10;99.90;;;;;;5123098;27;20546;-81
2024/03/14 01:03:24;;;;;;;21.60;19.47;;;11.10;99.90;;;;;;5106610;27;20446;-81
2024/03/14 01:05:53;;;;;;;20.50;18.60;;;11.10;99.90;;;;;;5122792;27;20488;-79
2024/03/14 01:08:21;;;;;;;19.07;17.20;;;11.10;99.90;;;;;;5105974;27;20501;-79
2024/03/14 01:10:50;;;;;;;20.57;18.67;;;11.10;99.90;;;;;;5105502;27;20495;-80
2024/03/14 01:13:19;;;;;;;19.13;17.37;;;11.10;99.90;;;;;;5105650;27;20786;-80
2024/03/14 01:15:48;;;;;;;19.83;17.83;;;11.10;99.90;;;;;;5105617;27;20449;-81
2024/03/14 01:18:16;;;;;;;20.70;18.77;;;11.10;99.90;;;;;;5105975;27;20450;-81
2024/03/14 01:20:48;;;;;;;19.40;17.60;;;11.10;99.90;;;;;;5106141;27;20932;-80
2024/03/14 01:23:17;;;;;;;19.70;17.70;;;11.10;99.90;;;;;;5122780;27;20450;-80
2024/03/14 01:25:45;;;;;;;20.33;18.63;;;11.10;99.90;;;;;;5122487;27;20437;-79
2024/03/14 01:28:14;;;;;;;19.83;17.97;;;11.10;99.90;;;;;;5122454;27;20851;-79
2024/03/14 01:30:42;;;;;;;21.87;19.80;;;11.10;99.90;;;;;;5105494;27;20467;-80
2024/03/14 01:33:10;;;;;;;20.37;18.57;;;11.10;99.90;;;;;;5105201;27;20516;-80
2024/03/14 01:35:39;;;;;;;18.87;17.20;;;11.10;99.90;;;;;;5121939;27;20466;-79
2024/03/14 01:38:07;;;;;;;19.60;17.90;;;11.10;99.90;;;;;;5105117;27;20446;-79
2024/03/14 01:40:36;;;;;;;19.30;17.57;;;11.10;99.90;;;;;;5104965;27;20835;-79
2024/03/14 01:43:04;;;;;;;18.63;16.83;;;11.10;99.90;;;;;;5121470;27;20483;-79
2024/03/14 01:45:32;;;;;;;18.47;16.87;;;11.10;99.90;;;;;;5104514;27;20562;-78
2024/03/14 01:48:01;;;;;;;18.80;17.20;;;11.10;99.90;;;;;;5104980;27;20446;-79
2024/03/14 01:50:29;;;;;;;20.07;18.20;;;11.10;99.90;;;;;;5106596;27;20906;-81
2024/03/14 01:52:59;;;;;;;19.17;17.47;;;11.10;99.90;;;;;;5107113;27;20446;-81
2024/03/14 01:55:28;;;;;;;21.90;19.80;;;11.10;99.90;;;;;;5123010;27;20538;-81
2024/03/14 01:57:57;;;;;;;20.03;18.20;;;11.10;99.90;;;;;;5107079;27;20464;-80
2024/03/14 02:00:29;;;;;;;18.97;17.10;;;11.10;99.90;;;;;;5123497;27;20997;-80
2024/03/14 02:02:58;;;;;;;17.13;15.63;;;11.10;99.90;;;;;;5107384;27;20435;-80
2024/03/14 02:05:26;;;;;;;19.47;17.67;;;11.10;99.90;;;;;;5105707;27;21077;-79
2024/03/14 02:07:54;;;;;;;18.43;16.83;;;11.10;99.90;;;;;;5106305;27;20950;-80
2024/03/14 02:10:25;;;;;;;19.00;17.30;;;11.10;99.90;;;;;;5123146;27;20849;-80
2024/03/14 02:12:54;;;;;;;19.50;17.60;;;11.10;99.90;;;;;;5106866;27;20472;-80
2024/03/14 02:15:23;;;;;;;17.47;15.97;;;11.10;99.90;;;;;;5122639;27;20441;-80
2024/03/14 02:17:52;;;;;;;18.10;16.50;;;11.20;99.90;;;;;;5105792;27;20545;-80
2024/03/14 02:20:21;;;;;;;18.33;16.37;;;11.10;99.90;;;;;;5122247;27;20511;-79
2024/03/14 02:22:49;;;;;;;17.90;16.30;;;11.10;99.90;;;;;;5105223;27;20472;-79
2024/03/14 02:25:22;;;;;;;18.40;16.80;;;11.10;99.90;;;;;;5104859;27;20466;-80
2024/03/14 02:27:50;;;;;;;17.60;16.00;;;11.10;99.90;;;;;;5106058;27;20434;-80
2024/03/14 02:30:18;;;;;;;18.50;16.90;;;11.10;99.90;;;;;;5104820;27;20542;-79
2024/03/14 02:32:47;;;;;;;18.20;16.50;;;11.10;99.90;;;;;;5104868;27;20478;-80
2024/03/14 02:35:16;;;;;;;16.30;14.90;;;11.10;99.90;;;;;;5105279;27;20529;-80
2024/03/14 02:37:45;;;;;;;17.00;15.37;;;11.10;99.90;;;;;;5104774;27;20439;-80
2024/03/14 02:40:13;;;;;;;18.07;16.50;;;11.10;99.90;;;;;;5104831;27;20474;-79
2024/03/14 02:42:44;;;;;;;17.23;15.73;;;11.10;99.90;;;;;;5104593;27;20446;-79
2024/03/14 02:45:14;;;;;;;16.23;14.60;;;11.10;99.90;;;;;;5105148;27;20516;-80
2024/03/14 02:47:43;;;;;;;18.80;17.00;;;11.20;99.90;;;;;;5104825;27;20446;-80
2024/03/14 02:50:12;;;;;;;16.43;15.00;;;11.20;99.90;;;;;;5105012;27;20839;-80
2024/03/14 02:52:41;;;;;;;18.40;16.70;;;11.10;99.90;;;;;;5105906;27;20510;-81
2024/03/14 02:55:09;;;;;;;16.77;15.27;;;11.20;99.90;;;;;;5122289;27;20965;-81
2024/03/14 02:57:37;;;;;;;17.03;15.53;;;11.20;99.90;;;;;;5105439;27;20450;-79
2024/03/14 03:00:14;;;;;;;15.93;14.53;;;11.20;99.90;;;;;;5121616;27;20458;-80
2024/03/14 03:02:44;;;;;;;16.93;15.43;;;11.10;99.90;;;;;;5106859;27;20830;-80
2024/03/14 03:05:12;;;;;;;16.60;15.20;;;11.20;99.90;;;;;;5104608;27;20477;-80
2024/03/14 03:07:43;;;;;;;17.40;15.80;;;11.20;99.90;;;;;;5120544;27;20430;-80
2024/03/14 03:10:12;;;;;;;16.53;15.07;;;11.20;99.90;;;;;;5104943;27;20455;-80
2024/03/14 03:12:41;;;;;;;17.40;15.83;;;11.20;99.90;;;;;;5104585;27;20477;-81
2024/03/14 03:15:09;;;;;;;16.93;15.43;;;11.20;99.90;;;;;;5104004;27;20853;-80
2024/03/14 03:17:39;;;;;;;17.23;15.60;;;11.20;99.90;;;;;;5103408;27;20493;-80
2024/03/14 03:20:11;;;;;;;16.30;14.80;;;11.20;99.90;;;;;;5121420;27;20826;-79
2024/03/14 03:25:26;;;;;;;16.03;14.63;;;11.20;99.90;;;;;;5122890;27;20450;-80
2024/03/14 03:27:53;;;;;;;16.50;15.10;;;11.20;99.90;;;;;;5103849;27;20456;-80
2024/03/14 03:30:21;;;;;;;14.83;13.63;;;11.20;99.90;;;;;;5120671;27;20461;-79
2024/03/14 03:32:50;;;;;;;15.80;14.40;;;11.20;99.90;;;;;;5103281;27;20801;-80
2024/03/14 03:35:21;;;;;;;16.77;15.10;;;11.20;99.90;;;;;;5103294;27;20438;-80
2024/03/14 03:37:52;;;;;;;16.17;14.73;;;11.20;99.90;;;;;;5105238;27;20490;-80
2024/03/14 03:40:22;;;;;;;17.50;15.90;;;11.20;99.90;;;;;;5102842;27;20462;-79
2024/03/14 03:42:52;;;;;;;15.10;13.70;;;11.20;99.90;;;;;;5104084;27;20834;-79
2024/03/14 03:45:21;;;;;;;15.83;14.43;;;11.20;99.90;;;;;;5103760;27;20561;-79
2024/03/14 03:47:49;;;;;;;16.27;14.87;;;11.20;99.90;;;;;;5102436;27;20445;-78
2024/03/14 03:50:18;;;;;;;17.27;15.80;;;11.20;99.90;;;;;;5101817;27;20565;-78
2024/03/14 03:52:46;;;;;;;15.97;14.47;;;11.20;99.90;;;;;;5119470;27;20430;-79
2024/03/14 03:55:16;;;;;;;16.47;15.07;;;11.20;99.90;;;;;;5118909;28;20492;-79
2024/03/14 03:57:44;;;;;;;16.63;15.03;;;11.20;99.90;;;;;;5102879;28;20462;-80
2024/03/14 04:02:59;;;;;;;16.47;15.00;;;11.20;99.90;;;;;;5121654;28;20522;-80
2024/03/14 04:05:28;;;;;;;14.83;13.43;;;11.20;99.90;;;;;;5118380;28;20462;-79
2024/03/14 04:07:56;;;;;;;15.37;13.97;;;11.20;99.90;;;;;;5118286;28;20521;-79
2024/03/14 04:10:25;;;;;;;16.73;15.33;;;11.20;99.90;;;;;;5102053;28;20501;-79
2024/03/14 04:12:54;;;;;;;15.87;14.57;;;11.20;99.90;;;;;;5101716;28;20438;-79
2024/03/14 04:15:22;;;;;;;15.43;14.13;;;11.20;99.90;;;;;;5102446;28;20478;-79
2024/03/14 04:17:50;;;;;;;16.17;14.80;;;11.30;99.90;;;;;;5102046;27;20792;-80
2024/03/14 04:20:19;;;;;;;15.07;13.67;;;11.30;99.90;;;;;;5116010;27;20480;-79
2024/03/14 04:22:48;;;;;;;15.03;13.73;;;11.30;99.90;;;;;;5117177;27;20445;-79
2024/03/14 04:25:17;;;;;;;15.17;13.97;;;11.20;99.90;;;;;;5113366;27;20488;-80
2024/03/14 04:27:46;;;;;;;15.40;14.00;;;11.20;99.90;;;;;;5107803;27;20446;-79
2024/03/14 04:30:15;;;;;;;15.03;13.80;;;11.20;99.90;;;;;;5124315;27;20510;-79
2024/03/14 04:32:45;;;;;;;15.70;14.40;;;11.20;99.90;;;;;;5107529;27;20443;-79
2024/03/14 04:35:15;;;;;;;15.40;14.10;;;11.30;99.90;;;;;;5107786;27;20438;-80
2024/03/14 04:37:43;;;;;;;15.93;14.63;;;11.20;99.90;;;;;;5107346;27;20438;-79
2024/03/14 04:40:12;;;;;;;15.40;14.07;;;11.20;99.90;;;;;;5124344;27;20463;-80
2024/03/14 04:42:41;;;;;;;17.07;15.53;;;11.20;99.90;;;;;;5123867;27;20434;-80
2024/03/14 04:45:17;;;;;;;14.87;13.67;;;11.20;99.90;;;;;;5107208;27;20454;-80
2024/03/14 04:47:45;;;;;;;15.40;14.10;;;11.20;99.90;;;;;;5110317;27;20941;-80
2024/03/14 04:50:14;;;;;;;14.53;13.27;;;11.20;99.90;;;;;;5108214;27;20473;-80
2024/03/14 04:52:42;;;;;;;16.33;14.73;;;11.20;99.90;;;;;;5124465;27;20435;-80
2024/03/14 04:55:11;;;;;;;15.87;14.30;;;11.20;99.90;;;;;;5107446;27;20446;-80
2024/03/14 04:57:40;;;;;;;15.13;13.73;;;11.20;99.90;;;;;;5106761;27;20452;-80
2024/03/14 05:00:20;;;;;;;15.00;13.80;;;11.20;99.90;;;;;;5107237;27;20474;-80
2024/03/14 05:02:51;;;;;;;14.23;13.03;;;11.20;99.90;;;;;;5111241;27;20484;-79
2024/03/14 05:05:21;;;;;;;16.27;14.87;;;11.20;99.90;;;;;;5107541;27;20541;-80
2024/03/14 05:07:50;;;;;;;14.43;13.20;;;11.20;99.90;;;;;;5108289;27;20454;-81
2024/03/14 05:10:19;;;;;;;13.43;12.33;;;11.20;99.90;;;;;;5107684;27;20484;-80
2024/03/14 05:12:49;;;;;;;13.57;12.47;;;11.20;99.90;;;;;;5125112;27;21042;-80
2024/03/14 05:15:17;;;;;;;13.67;12.47;;;11.20;99.90;;;;;;5106929;27;20790;-80
2024/03/14 05:17:47;;;;;;;13.77;12.53;;;11.20;99.90;;;;;;5107399;27;20495;-80
2024/03/14 05:20:16;;;;;;;15.00;13.80;;;11.20;99.90;;;;;;5106980;27;20537;-80
2024/03/14 05:22:45;;;;;;;14.90;13.53;;;11.20;99.90;;;;;;5106388;27;20461;-80
2024/03/14 05:25:13;;;;;;;14.30;13.10;;;11.20;99.90;;;;;;5106344;27;20526;-79
2024/03/14 05:27:47;;;;;;;14.03;12.90;;;11.20;99.90;;;;;;5106335;27;20462;-79
2024/03/14 05:30:19;;;;;;;14.57;13.17;;;11.30;99.90;;;;;;5122898;27;20962;-80
2024/03/14 05:32:48;;;;;;;14.40;13.10;;;11.30;99.90;;;;;;5106191;27;20443;-80
2024/03/14 05:35:18;;;;;;;14.73;13.40;;;11.30;99.90;;;;;;5122670;27;20434;-79
2024/03/14 05:37:46;;;;;;;15.30;14.00;;;11.30;99.90;;;;;;5106275;27;20466;-79
2024/03/14 05:40:14;;;;;;;14.83;13.57;;;11.30;99.90;;;;;;5106344;27;20493;-80
2024/03/14 05:42:43;;;;;;;14.77;13.40;;;11.30;99.90;;;;;;5105251;27;20446;-80
2024/03/14 05:45:11;;;;;;;15.10;13.90;;;11.30;99.90;;;;;;5105027;27;20876;-80
2024/03/14 05:47:40;;;;;;;15.00;13.67;;;11.30;99.90;;;;;;5105780;27;20527;-79
2024/03/14 05:50:09;;;;;;;15.20;13.90;;;11.30;99.90;;;;;;5105425;27;20466;-80
2024/03/14 05:52:40;;;;;;;15.73;14.43;;;11.30;99.90;;;;;;5122798;27;20423;-79
2024/03/14 05:55:10;;;;;;;15.67;14.27;;;11.30;99.90;;;;;;5105645;27;20450;-80
2024/03/14 05:57:39;;;;;;;15.77;14.47;;;11.30;99.90;;;;;;5106102;27;20439;-80
2024/03/14 06:00:11;;;;;;;15.67;14.30;;;11.30;99.90;;;;;;5105400;27;20466;-80
2024/03/14 06:02:40;;;;;;;15.13;13.83;;;11.30;99.90;;;;;;5106290;27;20473;-80
2024/03/14 06:05:09;;;;;;;16.60;15.10;;;11.30;99.90;;;;;;5105311;27;20943;-79
2024/03/14 06:07:38;;;;;;;17.87;16.00;;;11.30;99.90;;;;;;5105488;27;20469;-80
2024/03/14 06:10:08;;;;;;;17.10;15.50;;;11.30;99.90;;;;;;5105512;27;20463;-80
2024/03/14 06:12:37;;;;;;;17.63;15.90;;;11.30;99.90;;;;;;5106218;27;20464;-80
2024/03/14 06:15:07;;;;;;;16.67;15.23;;;11.40;99.90;;;;;;5105577;27;20521;-80
2024/03/14 06:17:36;;;;;;;17.30;15.80;;;11.40;99.90;;;;;;5105343;27;20450;-79
2024/03/14 06:20:07;;;;;;;16.40;15.10;;;11.40;99.90;;;;;;5122641;27;20970;-80
2024/03/14 06:22:36;;;;;;;18.00;16.30;;;11.40;99.90;;;;;;5122805;27;20789;-79
2024/03/14 06:25:07;;;;;;;17.97;16.23;;;11.40;99.90;;;;;;5105777;27;20860;-80
2024/03/14 06:27:35;;;;;;;16.97;15.43;;;11.40;99.90;;;;;;5110589;27;20462;-78
2024/03/14 06:30:09;;;;;;;16.40;15.00;;;11.40;99.90;;;;;;5110878;27;21040;-80
2024/03/14 06:32:41;;;;;;;18.03;16.43;;;11.40;99.90;;;;;;5106906;27;20450;-78
2024/03/14 06:35:11;;;;;;;17.05;15.45;;;11.40;99.90;;;;;;5119676;27;20437;-81
2024/03/14 06:37:39;;;;;;;17.03;15.60;;;11.50;99.90;;;;;;5105015;27;20212;-79
2024/03/14 06:40:09;;;;;;;18.10;16.57;;;11.50;99.90;;;;;;5104690;27;20864;-81
2024/03/14 06:42:37;;;;;;;17.70;16.10;;;11.50;99.90;;;;;;5120443;27;20434;-79
2024/03/14 06:45:07;;;;;;;17.10;15.80;;;11.50;99.90;;;;;;5104101;27;21104;-81
2024/03/14 06:47:35;;;;;;;17.27;15.67;;;11.50;99.90;;;;;;5103782;27;21010;-79
2024/03/14 06:50:04;;;;;;;17.67;16.13;;;11.60;99.90;;;;;;5103086;27;20466;-77
2024/03/14 06:52:35;;;;;;;18.00;16.17;;;11.60;99.90;;;;;;5103386;27;20472;-78
2024/03/14 06:55:04;;;;;;;17.43;15.97;;;11.60;99.90;;;;;;5104535;27;20465;-78
2024/03/14 06:57:34;;;;;;;17.80;16.20;;;11.60;99.90;;;;;;5120552;27;20456;-81
2024/03/14 07:00:11;;;;;;;17.87;16.37;;;11.60;99.90;;;;;;5103855;27;20465;-78
2024/03/14 07:02:41;;;;;;;19.30;17.57;;;11.60;99.90;;;;;;5105636;27;20525;-80
2024/03/14 07:05:14;;;;;;;19.60;17.87;;;11.60;99.90;;;;;;5103386;27;20446;-79
2024/03/14 07:07:44;;;;;;;19.90;18.20;;;11.60;99.90;;;;;;5104865;27;20466;-81
2024/03/14 07:10:14;;;;;;;18.07;16.37;;;11.60;99.90;;;;;;5103593;27;20465;-78
2024/03/14 07:12:45;;;;;;;17.00;15.50;;;11.70;99.90;;;;;;5103804;27;20457;-78
2024/03/14 07:15:17;;;;;;;18.10;16.63;;;11.60;99.90;;;;;;5104089;27;20510;-80
2024/03/14 07:17:46;;;;;;;19.03;17.20;;;11.70;99.90;;;;;;5120962;27;20794;-80
2024/03/14 07:20:18;;;;;;;18.90;17.27;;;11.70;99.90;;;;;;5120042;27;20481;-80
2024/03/14 07:22:46;;;;;;;17.47;15.97;;;11.70;99.90;;;;;;5103816;27;20495;-80
2024/03/14 07:25:17;;;;;;;17.03;15.63;;;11.70;99.90;;;;;;5103560;27;20818;-80
2024/03/14 07:27:46;;;;;;;17.00;15.53;;;11.70;99.90;;;;;;5106877;27;20537;-81
2024/03/14 07:30:15;;;;;;;18.07;16.50;;;11.70;99.90;;;;;;5121673;27;20460;-80
2024/03/14 07:32:45;;;;;;;18.70;17.00;;;11.80;99.90;;;;;;5105068;27;20520;-80
2024/03/14 07:35:12;;;;;;;18.03;16.53;;;11.80;99.90;;;;;;5104583;27;20443;-81
2024/03/14 07:37:44;;;;;;;17.37;15.97;;;11.80;99.90;;;;;;5105049;27;20431;-80
2024/03/14 07:40:16;;;;;;;19.53;17.80;;;11.80;99.90;;;;;;5104258;27;20477;-78
2024/03/14 07:42:46;;;;;;;17.50;16.00;;;11.80;99.90;;;;;;5105362;27;20789;-81
2024/03/14 07:45:17;;;;;;;17.20;15.80;;;11.90;99.90;;;;;;5102868;27;20450;-81
2024/03/14 07:47:48;;;;;;;17.53;16.00;;;11.90;99.90;;;;;;5119840;27;20458;-81
2024/03/14 07:50:17;;;;;;;17.50;16.10;;;11.90;99.90;;;;;;5103176;27;20473;-81
2024/03/14 07:52:46;;;;;;;18.83;17.23;;;11.90;99.90;;;;;;5101682;28;20443;-82
2024/03/14 07:55:16;;;;;;;18.83;16.90;;;12.00;99.90;;;;;;5102418;27;20519;-82
2024/03/14 07:57:46;;;;;;;17.43;15.83;;;12.10;99.90;;;;;;5103247;28;20435;-82
2024/03/14 08:00:16;;;;;;;17.87;16.33;;;12.10;99.90;;;;;;5102093;28;20857;-81
2024/03/14 08:02:54;;;;;;;17.93;16.33;;;12.20;99.90;;;;;;5102332;28;20446;-80
2024/03/14 08:05:25;;;;;;;18.83;17.07;;;12.30;99.90;;;;;;5104978;28;20442;-80
2024/03/14 08:07:54;;;;;;;16.97;15.47;;;12.40;99.90;;;;;;5102371;28;20462;-81
2024/03/14 08:10:45;;;;;;;16.20;14.73;;;12.40;99.90;;;;;;5107136;28;20820;-81
2024/03/14 08:13:17;;;;;;;18.03;16.30;;;12.50;99.90;;;;;;5103154;28;20852;-82
2024/03/14 08:15:53;;;;;;;16.73;15.13;;;12.70;99.90;;;;;;5102451;28;21009;-82
2024/03/14 08:18:22;;;;;;;16.17;14.87;;;12.80;99.90;;;;;;5119794;28;20418;-81
2024/03/14 08:20:55;;;;;;;17.20;15.60;;;12.90;99.90;;;;;;5101320;28;20553;-80
2024/03/14 08:23:25;;;;;;;17.97;16.37;;;13.10;99.90;;;;;;5103584;28;20439;-80
2024/03/14 08:25:54;;;;;;;15.70;14.23;;;13.20;99.90;;;;;;5102233;28;20449;-80
2024/03/14 08:28:23;;;;;;;15.80;14.40;;;13.40;99.90;;;;;;5100799;28;20830;-80
2024/03/14 08:30:51;;;;;;;14.43;12.93;;;13.50;99.90;;;;;;5101474;28;20519;-80
2024/03/14 08:33:22;;;;;;;16.80;15.40;;;13.60;99.90;;;;;;5100603;28;20499;-80
2024/03/14 08:35:52;;;;;;;14.70;13.33;;;13.70;99.90;;;;;;5101995;28;20474;-80
2024/03/14 08:38:21;;;;;;;15.60;13.73;;;13.60;99.90;;;;;;5101083;28;20499;-80
2024/03/14 08:40:50;;;;;;;14.83;13.50;;;13.60;99.90;;;;;;5101162;28;20512;-81
2024/03/14 08:43:18;;;;;;;14.90;13.57;;;13.60;99.90;;;;;;5100778;28;20476;-81
2024/03/14 08:45:48;;;;;;;15.20;13.80;;;13.60;99.90;;;;;;5116930;28;20502;-80
2024/03/14 08:48:17;;;;;;;14.30;13.00;;;13.60;99.90;;;;;;5101159;28;20466;-81
2024/03/14 08:50:46;;;;;;;15.63;14.17;;;13.60;99.90;;;;;;5100467;28;20851;-80
2024/03/14 08:53:15;;;;;;;15.10;13.53;;;13.60;99.90;;;;;;5100984;28;20513;-81
2024/03/14 08:55:52;;;;;;;15.50;14.00;;;13.70;99.90;;;;;;5117200;28;20491;-79
2024/03/14 08:58:21;;;;;;;15.33;14.00;;;13.70;99.90;;;;;;5118644;28;20847;-80
2024/03/14 09:00:50;;;;;;;14.07;12.97;;;13.70;99.90;;;;;;5100520;28;20830;-79
2024/03/14 09:03:18;;;;;;;13.50;12.33;;;13.80;99.90;;;;;;5100660;28;20470;-81
2024/03/14 09:05:48;;;;;;;14.90;13.60;;;13.80;99.90;;;;;;5102161;27;20477;-80
2024/03/14 09:08:18;;;;;;;16.17;14.87;;;13.90;99.90;;;;;;5105191;27;20863;-79
2024/03/14 09:10:47;;;;;;;14.83;13.43;;;13.90;99.90;;;;;;5104967;27;20466;-80
2024/03/14 09:13:15;;;;;;;14.67;13.20;;;14.00;99.90;;;;;;5113186;27;20474;-80
2024/03/14 09:15:43;;;;;;;13.53;12.17;;;14.10;99.90;;;;;;5115680;27;20506;-80
2024/03/14 09:18:14;;;;;;;14.07;12.87;;;14.20;99.90;;;;;;5110995;27;21038;-80
2024/03/14 09:20:48;;;;;;;13.80;12.70;;;14.20;99.90;;;;;;5105093;27;20561;-81
2024/03/14 09:23:19;;;;;;;14.13;12.83;;;14.30;99.90;;;;;;5121719;27;20419;-80
2024/03/14 09:25:48;;;;;;;14.57;13.10;;;14.40;99.90;;;;;;5105246;27;20435;-80
2024/03/14 09:28:16;;;;;;;13.23;11.90;;;14.40;99.90;;;;;;5103544;27;20466;-81
2024/03/14 09:30:45;;;;;;;13.27;12.10;;;14.40;99.90;;;;;;5120922;27;20462;-80
2024/03/14 09:33:14;;;;;;;13.10;11.90;;;14.50;99.90;;;;;;5103959;27;20454;-80
2024/03/14 09:35:46;;;;;;;14.43;13.20;;;14.50;99.90;;;;;;5103514;27;20469;-81
2024/03/14 09:38:15;;;;;;;13.30;12.10;;;14.50;99.90;;;;;;5104913;27;20441;-81
2024/03/14 09:40:44;;;;;;;13.03;11.73;;;14.50;99.90;;;;;;5103767;27;20515;-80
2024/03/14 09:43:14;;;;;;;13.80;12.60;;;14.60;99.90;;;;;;5120623;27;20440;-80
2024/03/14 09:45:44;;;;;;;13.33;12.13;;;14.60;99.90;;;;;;5107843;27;20452;-81
2024/03/14 09:48:13;;;;;;;13.60;12.50;;;14.70;99.90;;;;;;5109418;27;20466;-82
2024/03/14 09:50:42;;;;;;;13.97;11.60;;;14.80;99.90;;;;;;5121066;27;20891;-81
2024/03/14 09:53:14;;;;;;;13.53;12.37;;;14.80;99.90;;;;;;5104179;27;20470;-82
2024/03/14 09:55:43;;;;;;;13.20;11.93;;;14.90;99.90;;;;;;5120687;27;20421;-80
2024/03/14 09:58:14;;;;;;;13.10;11.80;;;15.00;99.90;;;;;;5120517;27;20439;-81
2024/03/14 10:00:43;;;;;;;12.00;11.00;;;15.10;99.90;;;;;;5104966;27;20906;-79
2024/03/14 10:03:13;;;;;;;12.60;11.30;;;15.10;99.90;;;;;;5103720;27;20442;-80
2024/03/14 10:05:42;;;;;;;11.50;10.40;;;15.20;99.90;;;;;;5103455;27;20461;-81
2024/03/14 10:08:11;;;;;;;12.83;11.57;;;15.20;99.90;;;;;;5103199;27;20474;-80
2024/03/14 10:10:40;;;;;;;11.50;10.50;;;15.20;99.90;;;;;;5119695;27;20953;-80
2024/03/14 10:13:10;;;;;;;11.33;10.30;;;15.20;99.90;;;;;;5102862;27;20449;-80
2024/03/14 10:15:39;;;;;;;12.03;10.83;;;15.20;99.90;;;;;;5103205;27;20442;-80
2024/03/14 10:18:09;;;;;;;12.33;11.23;;;15.30;99.90;;;;;;5102970;27;20447;-81
2024/03/14 10:20:38;;;;;;;12.20;11.10;;;15.30;99.90;;;;;;5102643;27;21054;-80
2024/03/14 10:23:07;;;;;;;11.30;9.70;;;15.40;99.90;;;;;;5102675;27;20438;-80
2024/03/14 10:25:39;;;;;;;11.77;10.07;;;15.40;99.90;;;;;;5103133;27;20457;-81
2024/03/14 10:28:16;;;;;;;11.00;10.00;;;15.50;99.90;;;;;;5102431;27;20459;-81
2024/03/14 10:30:51;;;;;;;10.07;9.27;;;15.50;99.90;;;;;;5104346;27;20466;-81
2024/03/14 10:33:21;;;;;;;8.67;7.87;;;15.50;99.90;;;;;;5108843;27;20550;-81
2024/03/14 10:35:55;;;;;;;9.87;8.20;;;15.60;99.90;;;;;;5116582;27;20474;-80
2024/03/14 10:38:26;;;;;;;9.30;8.50;;;15.60;99.90;;;;;;5104064;27;20524;-80
2024/03/14 10:40:56;;;;;;;10.07;9.17;;;15.60;99.90;;;;;;5101555;27;21060;-79
2024/03/14 10:43:25;;;;;;;10.90;9.80;;;15.60;99.90;;;;;;5101515;27;20447;-79
2024/03/14 10:45:54;;;;;;;10.60;9.70;;;15.70;99.90;;;;;;5118384;27;20453;-82
2024/03/14 10:48:25;;;;;;;10.67;9.77;;;15.70;99.90;;;;;;5103534;27;20450;-83
2024/03/14 10:50:56;;;;;;;8.10;7.30;;;15.80;99.90;;;;;;5104355;27;20557;-81
2024/03/14 10:53:25;;;;;;;8.50;7.70;;;15.90;99.90;;;;;;5120960;27;20422;-81
2024/03/14 10:55:54;;;;;;;8.30;7.60;;;15.90;99.90;;;;;;5103421;27;20442;-81
2024/03/14 10:58:23;;;;;;;9.13;8.10;;;15.90;99.90;;;;;;5103587;27;20442;-81
2024/03/14 11:00:52;;;;;;;8.63;7.77;;;16.00;99.90;;;;;;5102936;27;20462;-82
2024/03/14 11:03:22;;;;;;;8.97;7.47;;;16.00;99.90;;;;;;5102953;27;21001;-80
2024/03/14 11:05:50;;;;;;;8.40;7.60;;;16.00;99.90;;;;;;5120129;27;20430;-82
2024/03/14 11:08:20;;;;;;;8.90;7.97;;;16.10;99.90;;;;;;5102461;27;20951;-80
2024/03/14 11:10:49;;;;;;;8.77;7.73;;;16.10;99.90;;;;;;5119381;27;20473;-81
2024/03/14 11:13:18;;;;;;;8.63;7.93;;;16.20;99.90;;;;;;5102265;27;20443;-80
2024/03/14 11:15:46;;;;;;;8.83;7.87;;;16.30;99.90;;;;;;5102226;27;20966;-81
2024/03/14 11:18:16;;;;;;;10.10;8.10;;;16.30;99.90;;;;;;5101935;27;20478;-81
2024/03/14 11:20:45;;;;;;;7.50;6.80;;;16.40;99.90;;;;;;5102701;27;20450;-79
2024/03/14 11:23:13;;;;;;;7.47;6.73;;;16.40;99.90;;;;;;5118849;27;20470;-80
2024/03/14 11:25:42;;;;;;;6.93;6.23;;;16.40;99.90;;;;;;5101239;27;20435;-80
2024/03/14 11:28:12;;;;;;;6.80;6.10;;;16.50;99.90;;;;;;5101050;27;20509;-81
2024/03/14 11:30:42;;;;;;;6.80;6.20;;;16.50;99.90;;;;;;5117838;27;20477;-80
2024/03/14 11:33:11;;;;;;;7.40;6.57;;;16.60;99.90;;;;;;5102126;27;20185;-81
2024/03/14 11:35:43;;;;;;;8.70;7.87;;;16.60;99.90;;;;;;5101604;27;20486;-81
2024/03/14 11:38:26;;;;;;;8.93;8.03;;;16.60;99.90;;;;;;5102526;27;20409;-81
2024/03/14 11:40:55;;;;;;;8.27;7.40;;;16.70;99.90;;;;;;5118520;27;20871;-81
2024/03/14 11:43:27;;;;;;;7.03;6.43;;;16.70;99.90;;;;;;5101982;27;20439;-81
2024/03/14 11:45:59;;;;;;;9.00;8.30;;;16.80;99.90;;;;;;5101034;27;20429;-81
2024/03/14 11:48:42;;;;;;;9.13;8.30;;;16.80;99.90;;;;;;5170329;27;20874;-81
2024/03/14 11:51:11;;;;;;;7.63;6.93;;;16.90;99.90;;;;;;5136935;27;20882;-80
2024/03/14 11:53:40;;;;;;;8.83;8.03;;;16.90;99.90;;;;;;5120464;27;20531;-80
2024/03/14 11:56:08;;;;;;;7.70;7.00;;;17.00;99.90;;;;;;5118746;27;20437;-82
2024/03/14 11:58:41;;;;;;;6.73;6.13;;;17.00;99.90;;;;;;5119637;27;20889;-81
2024/03/14 12:01:13;;;;;;;5.93;5.30;;;17.00;99.90;;;;;;5119314;27;21066;-81
2024/03/14 12:03:49;;;;;;;5.87;5.10;;;17.00;99.90;;;;;;5137151;27;20417;-82
2024/03/14 12:06:18;;;;;;;5.80;5.20;;;17.10;99.90;;;;;;5122298;27;20436;-82
2024/03/14 12:08:51;;;;;;;6.33;4.70;;;17.10;99.90;;;;;;5120870;27;20472;-82
2024/03/14 12:11:20;;;;;;;5.80;5.30;;;17.20;99.90;;;;;;5120467;27;20415;-82
2024/03/14 12:13:53;;;;;;;5.27;4.83;;;17.30;99.90;;;;;;5119112;27;20576;-81
2024/03/14 12:16:22;;;;;;;5.20;4.80;;;17.30;99.90;;;;;;5120267;27;20421;-81
2024/03/14 12:18:51;;;;;;;5.77;5.23;;;17.30;99.90;;;;;;5118782;27;20475;-80
2024/03/14 12:21:20;;;;;;;6.30;5.70;;;17.30;99.90;;;;;;5119014;27;20824;-81
2024/03/14 12:23:54;;;;;;;5.23;4.83;;;17.40;99.90;;;;;;5118695;27;20420;-81
2024/03/14 12:26:23;;;;;;;6.10;5.57;;;17.40;99.90;;;;;;5119281;27;20420;-82
2024/03/14 12:28:52;;;;;;;5.70;5.10;;;17.40;99.90;;;;;;5117772;27;20447;-81
2024/03/14 12:31:20;;;;;;;5.10;4.50;;;17.50;99.90;;;;;;5118306;27;20449;-80
2024/03/14 12:33:48;;;;;;;4.90;4.40;;;17.50;99.90;;;;;;5118283;27;20502;-81
2024/03/14 12:36:17;;;;;;;6.03;4.83;;;17.60;99.90;;;;;;5118220;27;20452;-82
2024/03/14 12:38:50;;;;;;;5.30;4.83;;;17.60;99.90;;;;;;5118355;27;20412;-81
2024/03/14 12:41:19;;;;;;;5.17;4.67;;;17.60;99.90;;;;;;5135014;27;20441;-82
2024/03/14 12:43:48;;;;;;;4.90;4.50;;;17.60;99.90;;;;;;5117927;27;20591;-81
2024/03/14 12:46:19;;;;;;;5.73;5.33;;;17.70;99.90;;;;;;5117686;27;20471;-81
2024/03/14 12:48:47;;;;;;;5.43;4.80;;;17.70;99.90;;;;;;5118222;27;20451;-82